Date,TemperatureHighF,TemperatureAvgF,TemperatureLowF,DewpointHighF,DewpointAvgF,DewpointLowF,HumidityHigh,HumidityAvg,HumidityLow,PressureMaxIn,PressureMinIn,WindSpeedMaxMPH,WindSpeedAvgMPH,GustSpeedMaxMPH,PrecipitationSumIn
2013-1-1,50.2,47.5,42.8,49.0,42.6,29.0,97,84,52,30.03,29.84,6,2,7,0.80
2013-1-2,49.8,45.0,39.2,49.0,40.9,36.4,97,86,72,30.02,29.80,20,5,20,0.05
2013-1-3,52.5,39.4,31.8,37.0,33.0,23.2,92,79,43,30.18,29.98,9,5,11,0.00
2013-1-4,53.1,38.3,26.4,29.8,20.2,10.7,80,52,21,30.25,30.15,21,6,21,0.00
2013-1-5,51.4,38.1,25.0,35.3,23.3,16.3,84,57,35,30.26,30.13,13,3,13,0.02
2013-1-6,51.1,43.4,36.7,38.8,34.4,28.9,85,71,58,30.14,30.00,19,8,20,0.01
2013-1-7,58.3,43.6,30.6,32.9,28.5,23.9,78,57,34,30.28,30.09,12,5,14,0.00
2013-1-8,51.3,43.3,31.3,39.3,32.6,25.2,79,66,53,30.30,30.20,11,4,11,0.00
2013-1-9,66.7,56.3,48.6,51.8,46.4,37.9,86,70,55,30.33,30.24,8,2,8,0.00
2013-1-10,66.6,59.2,54.0,54.6,51.0,48.8,91,75,59,30.34,30.17,13,4,14,0.02
2013-1-11,67.3,61.3,57.6,63.8,59.0,55.0,95,92,79,30.17,30.03,13,5,14,0.27
2013-1-12,72.3,63.5,56.5,63.8,57.8,54.6,96,82,61,30.08,29.98,11,2,12,0.01
2013-1-13,71.2,66.0,59.0,59.2,57.2,54.0,91,74,63,30.03,29.95,17,6,17,0.02
2013-1-14,64.6,61.2,54.9,62.0,58.5,52.9,93,91,84,30.03,29.94,17,5,18,0.63
2013-1-15,62.4,59.4,54.1,59.9,57.4,52.2,95,93,90,30.01,29.88,13,4,13,0.58
2013-1-16,58.8,53.9,50.4,56.8,52.2,49.0,96,94,89,29.92,29.82,8,2,9,0.24
2013-1-17,55.6,48.6,36.0,53.9,46.8,32.2,96,93,82,30.09,29.58,27,5,29,0.72
2013-1-18,60.4,43.1,30.9,33.4,26.3,22.0,86,56,24,30.37,30.09,11,4,11,0.01
2013-1-19,57.0,40.2,27.9,33.1,25.7,18.8,86,60,25,30.33,30.09,9,2,11,0.00
2013-1-20,66.2,47.4,31.6,38.7,30.8,23.8,78,55,26,30.09,29.97,14,5,17,0.00
2013-1-21,60.4,45.0,33.4,32.8,26.1,14.3,77,50,32,30.01,29.93,27,8,27,0.00
2013-1-22,45.5,34.9,27.7,15.1,7.9,0.7,49,33,21,30.16,29.98,27,10,27,0.00
2013-1-23,50.7,38.7,26.6,30.0,19.8,8.3,65,47,34,30.24,30.03,23,6,25,0.00
2013-1-24,53.2,45.4,33.3,39.6,21.3,0.5,75,43,18,30.28,29.95,24,9,26,0.00
2013-1-25,35.8,28.5,25.3,31.4,14.0,-0.4,87,58,29,30.31,30.01,15,5,21,0.00
2013-1-26,59.9,43.3,34.9,38.4,32.4,24.7,96,69,30,30.16,29.99,12,6,13,0.04
2013-1-27,49.5,41.6,34.0,33.0,29.8,25.8,74,63,52,30.38,30.15,12,5,14,0.00
2013-1-28,51.8,43.5,40.6,42.5,32.9,29.4,93,66,61,30.31,30.17,8,2,8,0.00
2013-1-29,70.0,57.0,41.7,57.5,50.8,40.4,95,81,57,30.18,29.90,13,2,13,0.04
2013-1-30,64.9,56.3,43.0,61.1,51.3,34.9,92,84,72,29.91,29.46,37,11,37,2.06
2013-1-31,48.7,40.1,33.3,35.3,22.7,16.2,75,51,31,30.01,29.64,31,13,34,0.00